sensor_id;sensor_type;location;lat;lon;timestamp;P1;durP1;ratioP1;P2;durP2;ratioP2
2620;SDS011;1320;48.128;11.592;2023-02-13T00:02:08;9.73;;;6.50;;
2620;SDS011;1320;48.128;11.592;2023-02-13T00:04:34;18.03;;;4.43;;
2620;SDS011;1320;48.128;11.592;2023-02-13T00:06:59;10.33;;;5.63;;
2620;SDS011;1320;48.128;11.592;2023-02-13T00:09:25;12.13;;;6.03;;
2620;SDS011;1320;48.128;11.592;2023-02-13T00:11:51;12.10;;;4.53;;
2620;SDS011;1320;48.128;11.592;2023-02-13T00:14:17;11.63;;;5.27;;
2620;SDS011;1320;48.128;11.592;2023-02-13T00:16:42;10.23;;;5.30;;
2620;SDS011;1320;48.128;11.592;2023-02-13T00:19:08;11.67;;;7.07;;
2620;SDS011;1320;48.128;11.592;2023-02-13T00:21:34;7.07;;;6.37;;
2620;SDS011;1320;48.128;11.592;2023-02-13T00:23:59;12.07;;;6.60;;
2620;SDS011;1320;48.128;11.592;2023-02-13T00:26:25;8.90;;;6.33;;
2620;SDS011;1320;48.128;11.592;2023-02-13T00:28:51;16.80;;;5.90;;
2620;SDS011;1320;48.128;11.592;2023-02-13T00:31:18;7.47;;;5.70;;
2620;SDS011;1320;48.128;11.592;2023-02-13T00:33:45;10.75;;;7.30;;
2620;SDS011;1320;48.128;11.592;2023-02-13T00:36:12;13.82;;;6.32;;
2620;SDS011;1320;48.128;11.592;2023-02-13T00:38:40;14.65;;;6.50;;
2620;SDS011;1320;48.128;11.592;2023-02-13T00:41:07;9.93;;;4.50;;
2620;SDS011;1320;48.128;11.592;2023-02-13T00:43:33;10.60;;;5.53;;
2620;SDS011;1320;48.128;11.592;2023-02-13T00:45:59;14.40;;;8.27;;
2620;SDS011;1320;48.128;11.592;2023-02-13T00:48:26;7.27;;;4.60;;
2620;SDS011;1320;48.128;11.592;2023-02-13T00:50:52;7.95;;;6.43;;
2620;SDS011;1320;48.128;11.592;2023-02-13T00:53:19;11.45;;;6.35;;
2620;SDS011;1320;48.128;11.592;2023-02-13T00:55:46;10.90;;;6.57;;
2620;SDS011;1320;48.128;11.592;2023-02-13T00:58:12;16.35;;;8.80;;
2620;SDS011;1320;48.128;11.592;2023-02-13T01:00:38;12.98;;;6.25;;
2620;SDS011;1320;48.128;11.592;2023-02-13T01:03:04;11.27;;;5.88;;
2620;SDS011;1320;48.128;11.592;2023-02-13T01:05:30;16.20;;;7.43;;
2620;SDS011;1320;48.128;11.592;2023-02-13T01:07:57;13.32;;;6.60;;
2620;SDS011;1320;48.128;11.592;2023-02-13T01:10:23;7.90;;;5.47;;
2620;SDS011;1320;48.128;11.592;2023-02-13T01:12:49;13.95;;;7.13;;
2620;SDS011;1320;48.128;11.592;2023-02-13T01:15:16;20.27;;;5.50;;
2620;SDS011;1320;48.128;11.592;2023-02-13T01:17:42;17.33;;;7.03;;
2620;SDS011;1320;48.128;11.592;2023-02-13T01:20:09;15.00;;;6.60;;
2620;SDS011;1320;48.128;11.592;2023-02-13T01:22:36;7.97;;;4.78;;
2620;SDS011;1320;48.128;11.592;2023-02-13T01:25:02;16.20;;;7.83;;
2620;SDS011;1320;48.128;11.592;2023-02-13T01:27:28;10.10;;;4.82;;
2620;SDS011;1320;48.128;11.592;2023-02-13T01:29:53;16.20;;;5.67;;
2620;SDS011;1320;48.128;11.592;2023-02-13T01:32:19;9.13;;;5.70;;
2620;SDS011;1320;48.128;11.592;2023-02-13T01:34:45;13.55;;;6.75;;
2620;SDS011;1320;48.128;11.592;2023-02-13T01:37:11;11.03;;;7.23;;
2620;SDS011;1320;48.128;11.592;2023-02-13T01:39:37;13.33;;;5.80;;
2620;SDS011;1320;48.128;11.592;2023-02-13T01:42:03;7.33;;;4.83;;
2620;SDS011;1320;48.128;11.592;2023-02-13T01:44:46;11.65;;;6.75;;
2620;SDS011;1320;48.128;11.592;2023-02-13T01:47:13;19.17;;;6.18;;
2620;SDS011;1320;48.128;11.592;2023-02-13T01:49:43;16.25;;;7.75;;
2620;SDS011;1320;48.128;11.592;2023-02-13T01:52:10;11.93;;;5.18;;
2620;SDS011;1320;48.128;11.592;2023-02-13T01:54:37;11.98;;;6.50;;
2620;SDS011;1320;48.128;11.592;2023-02-13T01:59:33;10.38;;;6.95;;
2620;SDS011;1320;48.128;11.592;2023-02-13T02:02:04;12.65;;;6.22;;
2620;SDS011;1320;48.128;11.592;2023-02-13T02:04:31;8.70;;;4.70;;
2620;SDS011;1320;48.128;11.592;2023-02-13T02:07:05;14.60;;;8.32;;
2620;SDS011;1320;48.128;11.592;2023-02-13T02:09:36;11.57;;;5.95;;
2620;SDS011;1320;48.128;11.592;2023-02-13T02:12:09;15.40;;;6.57;;
2620;SDS011;1320;48.128;11.592;2023-02-13T02:14:46;10.13;;;5.43;;
2620;SDS011;1320;48.128;11.592;2023-02-13T02:17:13;12.18;;;7.50;;
2620;SDS011;1320;48.128;11.592;2023-02-13T02:47:53;6.03;;;4.20;;
2620;SDS011;1320;48.128;11.592;2023-02-13T02:51:01;8.52;;;4.38;;
2620;SDS011;1320;48.128;11.592;2023-02-13T02:56:11;12.30;;;5.63;;
2620;SDS011;1320;48.128;11.592;2023-02-13T02:58:46;11.73;;;5.13;;
2620;SDS011;1320;48.128;11.592;2023-02-13T03:01:34;15.90;;;6.60;;
2620;SDS011;1320;48.128;11.592;2023-02-13T03:07:18;6.90;;;3.38;;
2620;SDS011;1320;48.128;11.592;2023-02-13T03:09:46;7.68;;;4.80;;
2620;SDS011;1320;48.128;11.592;2023-02-13T03:12:44;5.47;;;3.47;;
2620;SDS011;1320;48.128;11.592;2023-02-13T03:15:45;5.07;;;3.83;;
2620;SDS011;1320;48.128;11.592;2023-02-13T03:18:32;7.72;;;5.75;;
2620;SDS011;1320;48.128;11.592;2023-02-13T03:30:38;13.52;;;5.68;;
2620;SDS011;1320;48.128;11.592;2023-02-13T03:36:02;9.65;;;5.68;;
2620;SDS011;1320;48.128;11.592;2023-02-13T03:38:59;8.65;;;6.50;;
2620;SDS011;1320;48.128;11.592;2023-02-13T03:41:50;7.47;;;5.10;;
2620;SDS011;1320;48.128;11.592;2023-02-13T03:44:43;9.93;;;4.63;;
2620;SDS011;1320;48.128;11.592;2023-02-13T03:47:50;7.90;;;4.25;;
2620;SDS011;1320;48.128;11.592;2023-02-13T03:50:19;7.93;;;5.50;;
2620;SDS011;1320;48.128;11.592;2023-02-13T03:55:21;8.27;;;5.32;;
2620;SDS011;1320;48.128;11.592;2023-02-13T03:58:21;6.05;;;4.95;;
2620;SDS011;1320;48.128;11.592;2023-02-13T04:01:11;8.02;;;4.72;;
2620;SDS011;1320;48.128;11.592;2023-02-13T04:03:44;9.60;;;4.70;;
2620;SDS011;1320;48.128;11.592;2023-02-13T04:06:16;8.43;;;4.85;;
2620;SDS011;1320;48.128;11.592;2023-02-13T04:08:48;6.60;;;5.22;;
2620;SDS011;1320;48.128;11.592;2023-02-13T04:11:14;7.80;;;5.40;;
2620;SDS011;1320;48.128;11.592;2023-02-13T04:13:56;9.70;;;4.80;;
2620;SDS011;1320;48.128;11.592;2023-02-13T04:16:34;6.88;;;4.18;;
2620;SDS011;1320;48.128;11.592;2023-02-13T04:19:04;5.97;;;4.78;;
2620;SDS011;1320;48.128;11.592;2023-02-13T04:21:35;14.18;;;5.25;;
2620;SDS011;1320;48.128;11.592;2023-02-13T04:24:04;6.97;;;4.30;;
2620;SDS011;1320;48.128;11.592;2023-02-13T04:26:37;9.07;;;4.88;;
2620;SDS011;1320;48.128;11.592;2023-02-13T04:29:10;14.60;;;4.80;;
2620;SDS011;1320;48.128;11.592;2023-02-13T04:31:35;6.40;;;4.50;;
2620;SDS011;1320;48.128;11.592;2023-02-13T04:34:01;7.20;;;4.43;;
2620;SDS011;1320;48.128;11.592;2023-02-13T04:36:27;7.17;;;4.20;;
2620;SDS011;1320;48.128;11.592;2023-02-13T04:38:52;7.53;;;4.10;;
2620;SDS011;1320;48.128;11.592;2023-02-13T04:41:18;7.10;;;3.97;;
2620;SDS011;1320;48.128;11.592;2023-02-13T04:43:44;5.20;;;2.97;;
2620;SDS011;1320;48.128;11.592;2023-02-13T04:46:09;9.07;;;5.00;;
2620;SDS011;1320;48.128;11.592;2023-02-13T04:48:35;6.07;;;4.40;;
2620;SDS011;1320;48.128;11.592;2023-02-13T04:51:01;8.67;;;5.27;;
2620;SDS011;1320;48.128;11.592;2023-02-13T04:53:26;9.87;;;5.13;;
2620;SDS011;1320;48.128;11.592;2023-02-13T04:55:52;8.67;;;4.73;;
2620;SDS011;1320;48.128;11.592;2023-02-13T04:58:18;9.87;;;5.70;;
2620;SDS011;1320;48.128;11.592;2023-02-13T05:00:43;10.50;;;5.90;;
2620;SDS011;1320;48.128;11.592;2023-02-13T05:03:10;8.70;;;6.00;;
2620;SDS011;1320;48.128;11.592;2023-02-13T05:05:37;8.15;;;5.43;;
2620;SDS011;1320;48.128;11.592;2023-02-13T05:08:04;10.68;;;5.07;;
2620;SDS011;1320;48.128;11.592;2023-02-13T05:10:33;10.27;;;6.00;;
2620;SDS011;1320;48.128;11.592;2023-02-13T05:12:59;6.68;;;4.70;;
2620;SDS011;1320;48.128;11.592;2023-02-13T05:15:24;8.63;;;5.03;;
2620;SDS011;1320;48.128;11.592;2023-02-13T05:17:50;8.50;;;5.10;;
2620;SDS011;1320;48.128;11.592;2023-02-13T05:20:16;8.50;;;5.23;;
2620;SDS011;1320;48.128;11.592;2023-02-13T05:22:45;8.63;;;5.97;;
2620;SDS011;1320;48.128;11.592;2023-02-13T05:25:32;9.68;;;5.70;;
2620;SDS011;1320;48.128;11.592;2023-02-13T05:27:58;10.98;;;7.22;;
2620;SDS011;1320;48.128;11.592;2023-02-13T05:30:23;8.07;;;5.63;;
2620;SDS011;1320;48.128;11.592;2023-02-13T05:32:49;9.00;;;5.50;;
2620;SDS011;1320;48.128;11.592;2023-02-13T05:35:16;7.05;;;3.92;;
2620;SDS011;1320;48.128;11.592;2023-02-13T05:37:45;9.73;;;5.63;;
2620;SDS011;1320;48.128;11.592;2023-02-13T05:40:11;8.33;;;5.80;;
2620;SDS011;1320;48.128;11.592;2023-02-13T05:42:38;9.35;;;5.57;;
2620;SDS011;1320;48.128;11.592;2023-02-13T05:45:07;8.40;;;4.35;;
2620;SDS011;1320;48.128;11.592;2023-02-13T05:47:34;11.32;;;5.13;;
2620;SDS011;1320;48.128;11.592;2023-02-13T05:50:00;12.23;;;5.37;;
2620;SDS011;1320;48.128;11.592;2023-02-13T05:52:25;10.67;;;5.20;;
2620;SDS011;1320;48.128;11.592;2023-02-13T05:54:51;10.23;;;5.63;;
2620;SDS011;1320;48.128;11.592;2023-02-13T05:57:17;12.63;;;5.70;;
2620;SDS011;1320;48.128;11.592;2023-02-13T05:59:43;12.35;;;7.68;;
2620;SDS011;1320;48.128;11.592;2023-02-13T06:02:08;10.43;;;7.03;;
2620;SDS011;1320;48.128;11.592;2023-02-13T06:04:34;10.30;;;5.90;;
2620;SDS011;1320;48.128;11.592;2023-02-13T06:07:00;11.10;;;8.10;;
2620;SDS011;1320;48.128;11.592;2023-02-13T06:09:25;13.13;;;5.60;;
2620;SDS011;1320;48.128;11.592;2023-02-13T06:11:51;7.90;;;6.43;;
2620;SDS011;1320;48.128;11.592;2023-02-13T06:14:17;11.20;;;5.80;;
2620;SDS011;1320;48.128;11.592;2023-02-13T06:16:42;10.77;;;7.50;;
2620;SDS011;1320;48.128;11.592;2023-02-13T06:19:08;13.53;;;9.40;;
2620;SDS011;1320;48.128;11.592;2023-02-13T06:21:34;13.20;;;6.40;;
2620;SDS011;1320;48.128;11.592;2023-02-13T06:24:05;8.65;;;6.85;;
2620;SDS011;1320;48.128;11.592;2023-02-13T06:26:32;10.32;;;6.38;;
2620;SDS011;1320;48.128;11.592;2023-02-13T06:28:58;11.73;;;6.35;;
2620;SDS011;1320;48.128;11.592;2023-02-13T06:31:24;14.73;;;7.57;;
2620;SDS011;1320;48.128;11.592;2023-02-13T06:33:50;13.25;;;7.82;;
2620;SDS011;1320;48.128;11.592;2023-02-13T06:36:16;10.87;;;7.00;;
2620;SDS011;1320;48.128;11.592;2023-02-13T06:38:42;13.23;;;7.10;;
2620;SDS011;1320;48.128;11.592;2023-02-13T06:41:07;13.93;;;6.50;;
2620;SDS011;1320;48.128;11.592;2023-02-13T06:43:33;17.05;;;8.48;;
2620;SDS011;1320;48.128;11.592;2023-02-13T06:46:03;13.02;;;7.13;;
2620;SDS011;1320;48.128;11.592;2023-02-13T06:48:29;11.23;;;7.38;;
2620;SDS011;1320;48.128;11.592;2023-02-13T06:50:55;13.50;;;6.40;;
2620;SDS011;1320;48.128;11.592;2023-02-13T06:53:20;12.77;;;7.50;;
2620;SDS011;1320;48.128;11.592;2023-02-13T06:55:49;14.50;;;8.20;;
2620;SDS011;1320;48.128;11.592;2023-02-13T06:58:20;12.30;;;5.88;;
2620;SDS011;1320;48.128;11.592;2023-02-13T07:00:46;10.27;;;6.40;;
2620;SDS011;1320;48.128;11.592;2023-02-13T07:03:13;11.23;;;6.13;;
2620;SDS011;1320;48.128;11.592;2023-02-13T07:05:39;12.27;;;6.90;;
2620;SDS011;1320;48.128;11.592;2023-02-13T07:08:06;17.85;;;8.25;;
2620;SDS011;1320;48.128;11.592;2023-02-13T07:10:32;18.25;;;7.82;;
2620;SDS011;1320;48.128;11.592;2023-02-13T07:12:58;11.93;;;7.10;;
2620;SDS011;1320;48.128;11.592;2023-02-13T07:15:24;17.60;;;7.33;;
2620;SDS011;1320;48.128;11.592;2023-02-13T07:17:56;15.83;;;6.33;;
2620;SDS011;1320;48.128;11.592;2023-02-13T07:20:23;12.68;;;7.47;;
2620;SDS011;1320;48.128;11.592;2023-02-13T07:22:49;12.48;;;7.38;;
2620;SDS011;1320;48.128;11.592;2023-02-13T07:25:15;13.60;;;6.90;;
2620;SDS011;1320;48.128;11.592;2023-02-13T07:27:41;12.98;;;6.20;;
2620;SDS011;1320;48.128;11.592;2023-02-13T07:30:07;9.20;;;5.57;;
2620;SDS011;1320;48.128;11.592;2023-02-13T07:32:33;10.85;;;5.90;;
2620;SDS011;1320;48.128;11.592;2023-02-13T07:34:59;14.43;;;6.57;;
2620;SDS011;1320;48.128;11.592;2023-02-13T07:37:26;10.90;;;6.93;;
2620;SDS011;1320;48.128;11.592;2023-02-13T07:39:52;9.90;;;7.40;;
2620;SDS011;1320;48.128;11.592;2023-02-13T07:42:18;9.40;;;5.47;;
2620;SDS011;1320;48.128;11.592;2023-02-13T07:44:44;13.47;;;7.97;;
2620;SDS011;1320;48.128;11.592;2023-02-13T07:47:09;14.30;;;7.23;;
2620;SDS011;1320;48.128;11.592;2023-02-13T07:49:35;11.20;;;7.63;;
2620;SDS011;1320;48.128;11.592;2023-02-13T07:52:01;10.55;;;5.80;;
2620;SDS011;1320;48.128;11.592;2023-02-13T07:54:28;10.95;;;6.82;;
2620;SDS011;1320;48.128;11.592;2023-02-13T07:56:54;12.70;;;5.93;;
2620;SDS011;1320;48.128;11.592;2023-02-13T07:59:19;12.33;;;6.70;;
2620;SDS011;1320;48.128;11.592;2023-02-13T08:01:45;15.37;;;7.77;;
2620;SDS011;1320;48.128;11.592;2023-02-13T08:04:10;18.10;;;9.40;;
2620;SDS011;1320;48.128;11.592;2023-02-13T08:06:39;24.20;;;8.93;;
2620;SDS011;1320;48.128;11.592;2023-02-13T08:09:06;16.33;;;7.65;;
2620;SDS011;1320;48.128;11.592;2023-02-13T08:11:58;15.70;;;7.65;;
2620;SDS011;1320;48.128;11.592;2023-02-13T08:14:25;13.68;;;7.82;;
2620;SDS011;1320;48.128;11.592;2023-02-13T08:16:51;13.27;;;7.68;;
2620;SDS011;1320;48.128;11.592;2023-02-13T08:19:18;15.55;;;8.40;;
2620;SDS011;1320;48.128;11.592;2023-02-13T08:21:44;17.70;;;8.53;;
2620;SDS011;1320;48.128;11.592;2023-02-13T08:24:10;11.90;;;6.20;;
2620;SDS011;1320;48.128;11.592;2023-02-13T08:26:36;13.57;;;7.53;;
2620;SDS011;1320;48.128;11.592;2023-02-13T08:29:05;11.90;;;7.10;;
2620;SDS011;1320;48.128;11.592;2023-02-13T08:31:31;11.55;;;7.63;;
2620;SDS011;1320;48.128;11.592;2023-02-13T08:33:57;11.87;;;8.60;;
2620;SDS011;1320;48.128;11.592;2023-02-13T08:36:23;16.63;;;7.80;;
2620;SDS011;1320;48.128;11.592;2023-02-13T08:38:48;16.40;;;8.77;;
2620;SDS011;1320;48.128;11.592;2023-02-13T08:41:14;16.30;;;8.50;;
2620;SDS011;1320;48.128;11.592;2023-02-13T08:43:42;13.68;;;7.43;;
2620;SDS011;1320;48.128;11.592;2023-02-13T08:46:08;13.97;;;7.47;;
2620;SDS011;1320;48.128;11.592;2023-02-13T08:48:33;16.73;;;7.47;;
2620;SDS011;1320;48.128;11.592;2023-02-13T08:50:59;17.63;;;7.03;;
2620;SDS011;1320;48.128;11.592;2023-02-13T08:53:29;12.70;;;7.55;;
2620;SDS011;1320;48.128;11.592;2023-02-13T08:55:55;24.70;;;12.03;;
2620;SDS011;1320;48.128;11.592;2023-02-13T08:58:22;18.05;;;8.18;;
2620;SDS011;1320;48.128;11.592;2023-02-13T09:00:48;11.77;;;7.40;;
2620;SDS011;1320;48.128;11.592;2023-02-13T09:03:13;12.80;;;7.50;;
2620;SDS011;1320;48.128;11.592;2023-02-13T09:05:39;16.10;;;7.50;;
2620;SDS011;1320;48.128;11.592;2023-02-13T09:08:05;17.33;;;9.93;;
2620;SDS011;1320;48.128;11.592;2023-02-13T09:10:32;22.27;;;8.38;;
2620;SDS011;1320;48.128;11.592;2023-02-13T09:12:58;14.88;;;7.18;;
2620;SDS011;1320;48.128;11.592;2023-02-13T09:15:25;22.15;;;9.15;;
2620;SDS011;1320;48.128;11.592;2023-02-13T09:17:51;17.20;;;7.90;;
2620;SDS011;1320;48.128;11.592;2023-02-13T09:20:17;17.10;;;9.98;;
2620;SDS011;1320;48.128;11.592;2023-02-13T09:22:43;10.13;;;7.03;;
2620;SDS011;1320;48.128;11.592;2023-02-13T09:25:08;13.00;;;7.60;;
2620;SDS011;1320;48.128;11.592;2023-02-13T09:27:34;8.27;;;7.47;;
2620;SDS011;1320;48.128;11.592;2023-02-13T09:30:01;17.38;;;10.25;;
2620;SDS011;1320;48.128;11.592;2023-02-13T09:32:27;12.57;;;8.03;;
2620;SDS011;1320;48.128;11.592;2023-02-13T09:34:53;16.50;;;7.82;;
2620;SDS011;1320;48.128;11.592;2023-02-13T09:37:18;11.97;;;7.43;;
2620;SDS011;1320;48.128;11.592;2023-02-13T09:39:44;19.13;;;9.80;;
2620;SDS011;1320;48.128;11.592;2023-02-13T09:42:17;13.50;;;8.77;;
2620;SDS011;1320;48.128;11.592;2023-02-13T09:44:48;15.65;;;7.00;;
2620;SDS011;1320;48.128;11.592;2023-02-13T09:47:29;10.85;;;6.60;;
2620;SDS011;1320;48.128;11.592;2023-02-13T09:50:40;8.13;;;6.47;;
2620;SDS011;1320;48.128;11.592;2023-02-13T09:52:50;12.40;;;6.18;;
2620;SDS011;1320;48.128;11.592;2023-02-13T09:55:22;13.77;;;7.93;;
2620;SDS011;1320;48.128;11.592;2023-02-13T10:00:48;16.13;;;8.40;;
2620;SDS011;1320;48.128;11.592;2023-02-13T10:03:27;12.93;;;7.40;;
2620;SDS011;1320;48.128;11.592;2023-02-13T10:06:07;12.43;;;7.78;;
2620;SDS011;1320;48.128;11.592;2023-02-13T10:14:23;20.17;;;12.07;;
2620;SDS011;1320;48.128;11.592;2023-02-13T10:17:05;13.00;;;8.60;;
2620;SDS011;1320;48.128;11.592;2023-02-13T10:19:56;16.17;;;8.73;;
2620;SDS011;1320;48.128;11.592;2023-02-13T10:25:46;21.02;;;8.65;;
2620;SDS011;1320;48.128;11.592;2023-02-13T10:28:21;14.63;;;7.38;;
2620;SDS011;1320;48.128;11.592;2023-02-13T10:31:32;12.25;;;8.40;;
2620;SDS011;1320;48.128;11.592;2023-02-13T10:33:59;17.37;;;8.53;;
2620;SDS011;1320;48.128;11.592;2023-02-13T10:36:32;17.92;;;9.50;;
2620;SDS011;1320;48.128;11.592;2023-02-13T10:47:00;14.07;;;9.38;;
2620;SDS011;1320;48.128;11.592;2023-02-13T11:03:10;13.48;;;8.82;;
2620;SDS011;1320;48.128;11.592;2023-02-13T11:05:44;24.95;;;10.55;;
2620;SDS011;1320;48.128;11.592;2023-02-13T11:08:17;16.73;;;8.13;;
2620;SDS011;1320;48.128;11.592;2023-02-13T11:11:03;11.43;;;8.05;;
2620;SDS011;1320;48.128;11.592;2023-02-13T11:14:10;19.25;;;10.57;;
2620;SDS011;1320;48.128;11.592;2023-02-13T11:24:58;16.67;;;8.95;;
2620;SDS011;1320;48.128;11.592;2023-02-13T11:27:40;16.20;;;10.13;;
2620;SDS011;1320;48.128;11.592;2023-02-13T11:33:40;17.45;;;8.55;;
2620;SDS011;1320;48.128;11.592;2023-02-13T11:35:41;19.38;;;9.85;;
2620;SDS011;1320;48.128;11.592;2023-02-13T11:40:45;11.95;;;7.72;;
2620;SDS011;1320;48.128;11.592;2023-02-13T11:43:27;13.32;;;9.77;;
2620;SDS011;1320;48.128;11.592;2023-02-13T11:46:02;12.88;;;8.75;;
2620;SDS011;1320;48.128;11.592;2023-02-13T11:48:30;20.02;;;11.27;;
2620;SDS011;1320;48.128;11.592;2023-02-13T11:50:56;19.23;;;8.93;;
2620;SDS011;1320;48.128;11.592;2023-02-13T11:53:24;13.93;;;9.10;;
2620;SDS011;1320;48.128;11.592;2023-02-13T11:56:00;17.80;;;9.20;;
2620;SDS011;1320;48.128;11.592;2023-02-13T11:58:37;15.38;;;9.15;;
2620;SDS011;1320;48.128;11.592;2023-02-13T12:03:51;18.98;;;11.43;;
2620;SDS011;1320;48.128;11.592;2023-02-13T12:06:22;16.30;;;9.07;;
2620;SDS011;1320;48.128;11.592;2023-02-13T12:08:48;13.30;;;9.00;;
2620;SDS011;1320;48.128;11.592;2023-02-13T12:14:11;12.63;;;7.85;;
2620;SDS011;1320;48.128;11.592;2023-02-13T12:16:43;18.60;;;9.40;;
2620;SDS011;1320;48.128;11.592;2023-02-13T12:19:24;18.70;;;10.75;;
2620;SDS011;1320;48.128;11.592;2023-02-13T12:52:06;16.13;;;8.57;;
2620;SDS011;1320;48.128;11.592;2023-02-13T12:54:55;22.27;;;9.23;;
2620;SDS011;1320;48.128;11.592;2023-02-13T13:00:27;21.33;;;9.98;;
2620;SDS011;1320;48.128;11.592;2023-02-13T13:06:12;16.40;;;8.75;;
2620;SDS011;1320;48.128;11.592;2023-02-13T13:17:35;11.27;;;7.68;;
2620;SDS011;1320;48.128;11.592;2023-02-13T13:20:20;13.52;;;7.45;;
2620;SDS011;1320;48.128;11.592;2023-02-13T13:23:04;16.77;;;8.55;;
2620;SDS011;1320;48.128;11.592;2023-02-13T13:28:47;11.98;;;8.00;;
2620;SDS011;1320;48.128;11.592;2023-02-13T13:30:58;8.85;;;6.47;;
2620;SDS011;1320;48.128;11.592;2023-02-13T13:33:26;11.48;;;7.40;;
2620;SDS011;1320;48.128;11.592;2023-02-13T13:35:55;11.45;;;7.35;;
2620;SDS011;1320;48.128;11.592;2023-02-13T13:41:16;19.50;;;7.50;;
2620;SDS011;1320;48.128;11.592;2023-02-13T13:46:15;14.23;;;7.30;;
2620;SDS011;1320;48.128;11.592;2023-02-13T13:51:36;9.75;;;6.85;;
2620;SDS011;1320;48.128;11.592;2023-02-13T14:07:35;9.75;;;6.72;;
2620;SDS011;1320;48.128;11.592;2023-02-13T14:10:05;10.15;;;6.95;;
2620;SDS011;1320;48.128;11.592;2023-02-13T14:12:58;12.88;;;8.23;;
2620;SDS011;1320;48.128;11.592;2023-02-13T14:17:58;9.27;;;7.65;;
2620;SDS011;1320;48.128;11.592;2023-02-13T14:23:18;10.70;;;5.82;;
2620;SDS011;1320;48.128;11.592;2023-02-13T14:36:27;13.52;;;7.63;;
2620;SDS011;1320;48.128;11.592;2023-02-13T14:39:07;15.40;;;6.82;;
2620;SDS011;1320;48.128;11.592;2023-02-13T14:41:57;13.88;;;6.43;;
2620;SDS011;1320;48.128;11.592;2023-02-13T14:47:00;11.27;;;6.63;;
2620;SDS011;1320;48.128;11.592;2023-02-13T14:49:46;8.68;;;5.80;;
2620;SDS011;1320;48.128;11.592;2023-02-13T14:52:17;5.55;;;4.70;;
2620;SDS011;1320;48.128;11.592;2023-02-13T14:54:52;8.13;;;5.70;;
2620;SDS011;1320;48.128;11.592;2023-02-13T14:57:49;8.60;;;5.97;;
2620;SDS011;1320;48.128;11.592;2023-02-13T15:00:23;11.82;;;6.70;;
2620;SDS011;1320;48.128;11.592;2023-02-13T15:02:59;8.45;;;5.43;;
2620;SDS011;1320;48.128;11.592;2023-02-13T15:05:31;6.78;;;5.68;;
2620;SDS011;1320;48.128;11.592;2023-02-13T15:08:11;12.40;;;6.85;;
2620;SDS011;1320;48.128;11.592;2023-02-13T15:10:41;9.27;;;6.90;;
2620;SDS011;1320;48.128;11.592;2023-02-13T15:15:42;15.13;;;8.65;;
2620;SDS011;1320;48.128;11.592;2023-02-13T15:18:10;13.32;;;7.60;;
2620;SDS011;1320;48.128;11.592;2023-02-13T15:20:44;10.70;;;6.13;;
2620;SDS011;1320;48.128;11.592;2023-02-13T15:23:29;9.32;;;6.63;;
2620;SDS011;1320;48.128;11.592;2023-02-13T15:25:57;14.85;;;7.65;;
2620;SDS011;1320;48.128;11.592;2023-02-13T15:28:29;12.52;;;6.70;;
2620;SDS011;1320;48.128;11.592;2023-02-13T15:31:05;13.77;;;7.78;;
2620;SDS011;1320;48.128;11.592;2023-02-13T15:33:44;10.45;;;6.63;;
2620;SDS011;1320;48.128;11.592;2023-02-13T15:36:22;13.50;;;8.27;;
2620;SDS011;1320;48.128;11.592;2023-02-13T15:38:58;13.32;;;8.38;;
2620;SDS011;1320;48.128;11.592;2023-02-13T15:41:30;10.13;;;5.70;;
2620;SDS011;1320;48.128;11.592;2023-02-13T15:44:04;14.80;;;6.35;;
2620;SDS011;1320;48.128;11.592;2023-02-13T15:46:31;13.25;;;6.95;;
2620;SDS011;1320;48.128;11.592;2023-02-13T15:48:59;13.15;;;7.68;;
2620;SDS011;1320;48.128;11.592;2023-02-13T15:51:30;12.50;;;8.23;;
2620;SDS011;1320;48.128;11.592;2023-02-13T15:54:00;16.60;;;7.10;;
2620;SDS011;1320;48.128;11.592;2023-02-13T15:56:28;9.52;;;6.63;;
2620;SDS011;1320;48.128;11.592;2023-02-13T15:58:55;11.02;;;6.65;;
2620;SDS011;1320;48.128;11.592;2023-02-13T16:01:22;16.95;;;7.05;;
2620;SDS011;1320;48.128;11.592;2023-02-13T16:03:57;13.98;;;7.63;;
2620;SDS011;1320;48.128;11.592;2023-02-13T16:06:26;15.55;;;8.23;;
2620;SDS011;1320;48.128;11.592;2023-02-13T16:08:54;9.88;;;6.72;;
2620;SDS011;1320;48.128;11.592;2023-02-13T16:11:25;10.95;;;6.90;;
2620;SDS011;1320;48.128;11.592;2023-02-13T16:13:55;14.68;;;8.13;;
2620;SDS011;1320;48.128;11.592;2023-02-13T16:16:51;13.05;;;6.22;;
2620;SDS011;1320;48.128;11.592;2023-02-13T16:19:35;11.10;;;6.95;;
2620;SDS011;1320;48.128;11.592;2023-02-13T16:22:15;11.35;;;7.70;;
2620;SDS011;1320;48.128;11.592;2023-02-13T16:25:08;15.75;;;8.00;;
2620;SDS011;1320;48.128;11.592;2023-02-13T16:28:13;10.93;;;7.15;;
2620;SDS011;1320;48.128;11.592;2023-02-13T16:31:02;12.88;;;7.53;;
2620;SDS011;1320;48.128;11.592;2023-02-13T16:33:29;14.00;;;7.45;;
2620;SDS011;1320;48.128;11.592;2023-02-13T16:35:57;13.35;;;7.35;;
2620;SDS011;1320;48.128;11.592;2023-02-13T16:41:06;10.13;;;6.22;;
2620;SDS011;1320;48.128;11.592;2023-02-13T16:44:00;13.63;;;7.40;;
2620;SDS011;1320;48.128;11.592;2023-02-13T16:51:39;13.75;;;7.30;;
2620;SDS011;1320;48.128;11.592;2023-02-13T17:07:34;14.93;;;8.32;;
2620;SDS011;1320;48.128;11.592;2023-02-13T17:10:56;11.25;;;6.43;;
2620;SDS011;1320;48.128;11.592;2023-02-13T17:13:01;10.43;;;6.32;;
2620;SDS011;1320;48.128;11.592;2023-02-13T17:15:42;10.48;;;7.72;;
2620;SDS011;1320;48.128;11.592;2023-02-13T17:18:09;16.17;;;8.27;;
2620;SDS011;1320;48.128;11.592;2023-02-13T17:20:35;12.27;;;8.70;;
2620;SDS011;1320;48.128;11.592;2023-02-13T17:23:04;15.07;;;7.28;;
2620;SDS011;1320;48.128;11.592;2023-02-13T17:25:32;12.52;;;7.72;;
2620;SDS011;1320;48.128;11.592;2023-02-13T17:28:01;15.05;;;8.95;;
2620;SDS011;1320;48.128;11.592;2023-02-13T17:30:35;21.45;;;9.75;;
2620;SDS011;1320;48.128;11.592;2023-02-13T17:33:10;14.77;;;9.10;;
2620;SDS011;1320;48.128;11.592;2023-02-13T17:35:36;15.05;;;7.78;;
2620;SDS011;1320;48.128;11.592;2023-02-13T17:38:02;11.50;;;8.90;;
2620;SDS011;1320;48.128;11.592;2023-02-13T17:40:28;14.23;;;9.00;;
2620;SDS011;1320;48.128;11.592;2023-02-13T17:42:55;15.55;;;9.90;;
2620;SDS011;1320;48.128;11.592;2023-02-13T17:45:24;14.95;;;9.00;;
2620;SDS011;1320;48.128;11.592;2023-02-13T17:47:51;17.48;;;8.57;;
2620;SDS011;1320;48.128;11.592;2023-02-13T17:50:17;17.13;;;7.60;;
2620;SDS011;1320;48.128;11.592;2023-02-13T17:52:44;10.85;;;6.90;;
2620;SDS011;1320;48.128;11.592;2023-02-13T17:57:47;17.67;;;9.40;;
2620;SDS011;1320;48.128;11.592;2023-02-13T18:00:13;12.02;;;8.77;;
2620;SDS011;1320;48.128;11.592;2023-02-13T18:02:40;16.77;;;10.00;;
2620;SDS011;1320;48.128;11.592;2023-02-13T18:05:09;16.02;;;9.15;;
2620;SDS011;1320;48.128;11.592;2023-02-13T18:07:35;17.73;;;13.25;;
2620;SDS011;1320;48.128;11.592;2023-02-13T18:10:01;16.10;;;9.93;;
2620;SDS011;1320;48.128;11.592;2023-02-13T18:12:27;11.27;;;7.47;;
2620;SDS011;1320;48.128;11.592;2023-02-13T18:14:58;14.43;;;9.33;;
2620;SDS011;1320;48.128;11.592;2023-02-13T18:17:24;16.55;;;10.05;;
2620;SDS011;1320;48.128;11.592;2023-02-13T18:19:49;18.10;;;10.47;;
2620;SDS011;1320;48.128;11.592;2023-02-13T18:22:15;16.10;;;9.03;;
2620;SDS011;1320;48.128;11.592;2023-02-13T18:24:41;19.10;;;9.70;;
2620;SDS011;1320;48.128;11.592;2023-02-13T18:27:07;12.37;;;9.50;;
2620;SDS011;1320;48.128;11.592;2023-02-13T18:29:35;16.27;;;7.82;;
2620;SDS011;1320;48.128;11.592;2023-02-13T18:32:01;19.63;;;10.60;;
2620;SDS011;1320;48.128;11.592;2023-02-13T18:34:28;15.85;;;9.55;;
2620;SDS011;1320;48.128;11.592;2023-02-13T18:36:54;13.93;;;8.30;;
2620;SDS011;1320;48.128;11.592;2023-02-13T18:39:19;16.97;;;7.63;;
2620;SDS011;1320;48.128;11.592;2023-02-13T18:41:46;15.02;;;9.50;;
2620;SDS011;1320;48.128;11.592;2023-02-13T18:44:12;10.93;;;8.20;;
2620;SDS011;1320;48.128;11.592;2023-02-13T18:46:37;19.43;;;10.77;;
2620;SDS011;1320;48.128;11.592;2023-02-13T18:49:03;17.10;;;9.40;;
2620;SDS011;1320;48.128;11.592;2023-02-13T18:51:29;20.27;;;11.03;;